createdAt,value
2023-02-11T00:00:17.435Z,7.13
2023-02-11T00:02:46.781Z,6.90
2023-02-11T00:05:14.393Z,7.80
2023-02-11T00:07:40.995Z,4.88
2023-02-11T00:10:07.991Z,7.10
2023-02-11T00:12:35.095Z,7.77
2023-02-11T00:15:01.711Z,7.55
2023-02-11T00:17:28.282Z,7.45
2023-02-11T00:19:54.855Z,6.50
2023-02-11T00:22:21.478Z,5.40
2023-02-11T00:24:48.058Z,6.78
2023-02-11T00:27:14.606Z,6.25
2023-02-11T00:29:41.173Z,6.85
2023-02-11T00:32:08.992Z,6.90
2023-02-11T00:37:02.530Z,6.38
2023-02-11T00:39:29.118Z,6.53
2023-02-11T00:41:55.751Z,6.85
2023-02-11T00:44:22.323Z,6.90
2023-02-11T00:46:48.851Z,5.60
2023-02-11T00:49:15.783Z,4.50
2023-02-11T00:51:42.344Z,5.63
2023-02-11T00:54:08.934Z,5.00
2023-02-11T00:56:35.566Z,6.65
2023-02-11T00:59:02.090Z,5.55
2023-02-11T01:01:28.734Z,6.25
2023-02-11T01:03:55.296Z,6.50
2023-02-11T01:06:23.060Z,5.93
2023-02-11T01:08:49.607Z,6.07
2023-02-11T01:11:17.679Z,4.45
2023-02-11T01:13:45.284Z,6.20
2023-02-11T01:16:12.040Z,4.13
2023-02-11T01:18:38.628Z,6.53
2023-02-11T01:21:05.305Z,6.20
2023-02-11T01:23:31.900Z,3.97
2023-02-11T01:25:58.734Z,5.47
2023-02-11T01:28:29.584Z,4.78
2023-02-11T01:30:56.313Z,5.55
2023-02-11T01:33:23.464Z,5.00
2023-02-11T01:35:50.743Z,6.45
2023-02-11T01:38:25.183Z,5.47
2023-02-11T01:40:52.775Z,4.57
2023-02-11T01:43:19.528Z,5.10
2023-02-11T01:45:49.465Z,4.32
2023-02-11T01:48:19.316Z,5.15
2023-02-11T01:50:50.418Z,4.93
2023-02-11T01:53:36.063Z,4.22
2023-02-11T01:56:21.812Z,4.43
2023-02-11T01:58:49.068Z,5.85
2023-02-11T02:01:18.134Z,5.35
2023-02-11T02:03:45.379Z,5.78
2023-02-11T02:06:34.631Z,4.53
2023-02-11T02:09:01.121Z,5.22
2023-02-11T02:13:55.547Z,4.97
2023-02-11T02:16:25.007Z,4.57
2023-02-11T02:18:54.702Z,4.43
2023-02-11T02:21:24.029Z,5.20
2023-02-11T02:23:58.056Z,2.97
2023-02-11T02:26:43.364Z,3.55
2023-02-11T02:29:15.760Z,4.22
2023-02-11T02:32:05.368Z,4.90
2023-02-11T02:34:44.183Z,3.80
2023-02-11T02:37:15.181Z,4.10
2023-02-11T02:39:42.241Z,3.58
2023-02-11T02:42:09.306Z,3.23
2023-02-11T02:44:35.927Z,4.43
2023-02-11T02:47:02.637Z,4.55
2023-02-11T02:49:29.283Z,4.95
2023-02-11T02:52:04.770Z,3.15
2023-02-11T02:54:33.998Z,5.38
2023-02-11T02:57:00.510Z,4.00
2023-02-11T02:59:30.059Z,4.93
2023-02-11T03:02:17.359Z,5.18
2023-02-11T03:05:13.065Z,4.93
2023-02-11T03:07:45.585Z,5.15
2023-02-11T03:10:27.144Z,4.85
2023-02-11T03:12:54.415Z,4.63
2023-02-11T03:15:22.923Z,5.88
2023-02-11T03:17:51.440Z,4.70
2023-02-11T03:20:19.769Z,4.60
2023-02-11T03:22:49.546Z,3.90
2023-02-11T03:25:16.161Z,2.88
2023-02-11T03:28:08.817Z,4.88
2023-02-11T03:30:39.052Z,5.22
2023-02-11T03:33:08.721Z,5.30
2023-02-11T03:35:37.986Z,2.80
2023-02-11T03:38:24.804Z,4.53
2023-02-11T03:40:52.168Z,3.42
2023-02-11T03:43:21.133Z,5.03
2023-02-11T03:45:48.780Z,5.82
2023-02-11T03:48:22.482Z,6.00
2023-02-11T03:50:50.953Z,5.40
2023-02-11T03:53:17.801Z,4.90
2023-02-11T03:55:45.620Z,3.85
2023-02-11T03:58:12.234Z,4.00
2023-02-11T04:00:41.058Z,4.30
2023-02-11T04:03:08.144Z,4.47
2023-02-11T04:05:34.898Z,5.93
2023-02-11T04:08:01.621Z,4.97
2023-02-11T04:10:28.213Z,5.32
2023-02-11T04:12:54.728Z,4.40
2023-02-11T04:15:22.952Z,5.88
2023-02-11T04:17:49.492Z,4.40
2023-02-11T04:20:16.096Z,4.07
2023-02-11T04:22:42.626Z,5.57
2023-02-11T04:25:09.447Z,4.75
2023-02-11T04:27:36.193Z,5.60
2023-02-11T04:30:02.762Z,5.75
2023-02-11T04:32:29.299Z,4.72
2023-02-11T04:34:55.918Z,4.63
2023-02-11T04:37:22.445Z,6.10
2023-02-11T04:39:49.040Z,3.90
2023-02-11T04:42:15.754Z,3.65
2023-02-11T04:44:42.279Z,6.20
2023-02-11T04:47:08.813Z,6.03
2023-02-11T04:49:35.416Z,4.00
2023-02-11T04:52:01.972Z,4.90
2023-02-11T04:54:28.510Z,5.80
2023-02-11T04:56:55.113Z,6.35
2023-02-11T04:59:21.654Z,5.45
2023-02-11T05:01:48.231Z,4.03
2023-02-11T05:04:14.996Z,4.15
2023-02-11T05:06:41.539Z,5.88
2023-02-11T05:09:08.188Z,6.63
2023-02-11T05:11:36.680Z,6.63
2023-02-11T05:14:03.216Z,6.43
2023-02-11T05:16:29.768Z,6.63
2023-02-11T05:18:56.573Z,5.95
2023-02-11T05:21:23.129Z,5.85
2023-02-11T05:23:49.874Z,4.93
2023-02-11T05:26:16.452Z,5.93
2023-02-11T05:28:43.278Z,5.72
2023-02-11T05:31:10.269Z,4.68
2023-02-11T05:33:37.156Z,6.57
2023-02-11T05:36:05.443Z,6.97
2023-02-11T05:38:32.162Z,7.85
2023-02-11T05:40:58.749Z,6.78
2023-02-11T05:43:25.410Z,5.57
2023-02-11T05:45:52.414Z,5.40
2023-02-11T05:48:19.111Z,6.43
2023-02-11T05:50:45.694Z,6.88
2023-02-11T05:53:12.271Z,6.60
2023-02-11T05:55:39.010Z,7.88
2023-02-11T05:58:05.839Z,8.85
2023-02-11T06:00:32.465Z,6.90
2023-02-11T06:02:59.136Z,6.35
2023-02-11T06:05:26.061Z,9.05
2023-02-11T06:07:52.927Z,7.43
2023-02-11T06:10:19.498Z,9.80
2023-02-11T06:12:46.154Z,8.07
2023-02-11T06:15:12.719Z,8.68
2023-02-11T06:17:39.326Z,6.75
2023-02-11T06:20:06.884Z,8.40
2023-02-11T06:22:34.926Z,10.25
2023-02-11T06:25:02.379Z,10.27
2023-02-11T06:27:29.350Z,9.70
2023-02-11T06:29:55.941Z,11.00
2023-02-11T06:32:42.333Z,9.95
2023-02-11T06:35:11.741Z,10.07
2023-02-11T06:37:38.712Z,8.25
2023-02-11T06:40:05.568Z,7.07
2023-02-11T06:42:32.151Z,10.10
2023-02-11T06:44:58.666Z,10.35
2023-02-11T06:47:25.309Z,7.90
2023-02-11T06:49:51.856Z,11.07
2023-02-11T06:52:18.471Z,10.50
2023-02-11T06:54:44.988Z,10.90
2023-02-11T06:57:11.711Z,11.07
2023-02-11T06:59:38.214Z,11.70
2023-02-11T07:02:05.065Z,11.80
2023-02-11T07:04:31.759Z,11.47
2023-02-11T07:06:58.300Z,11.80
2023-02-11T07:09:24.817Z,9.98
2023-02-11T07:11:51.379Z,13.07
2023-02-11T07:14:17.974Z,12.82
2023-02-11T07:16:44.539Z,11.52
2023-02-11T07:19:11.029Z,13.38
2023-02-11T07:21:37.626Z,12.27
2023-02-11T07:24:10.735Z,12.90
2023-02-11T07:26:37.699Z,11.77
2023-02-11T07:29:04.233Z,13.85
2023-02-11T07:31:31.178Z,13.10
2023-02-11T07:33:59.971Z,13.85
2023-02-11T07:36:27.194Z,13.10
2023-02-11T07:38:53.757Z,18.35
2023-02-11T07:41:21.612Z,20.98
2023-02-11T07:46:18.383Z,13.45
2023-02-11T07:48:45.180Z,15.52
2023-02-11T07:51:15.957Z,12.73
2023-02-11T07:53:42.675Z,17.70
2023-02-11T07:56:10.084Z,16.35
2023-02-11T07:58:37.083Z,12.18
2023-02-11T08:01:08.041Z,15.13
2023-02-11T08:03:35.485Z,16.02
2023-02-11T08:06:08.747Z,16.00
2023-02-11T08:08:35.543Z,22.67
2023-02-11T08:11:09.245Z,23.05
2023-02-11T08:13:36.194Z,25.33
2023-02-11T08:16:03.412Z,17.47
2023-02-11T08:18:30.390Z,17.33
2023-02-11T08:20:56.946Z,27.83
2023-02-11T08:23:23.489Z,18.02
2023-02-11T08:25:50.150Z,17.13
2023-02-11T08:28:16.712Z,17.30
2023-02-11T08:30:43.297Z,17.10
2023-02-11T08:33:09.853Z,20.67
2023-02-11T08:35:37.291Z,24.33
2023-02-11T08:38:03.857Z,22.33
2023-02-11T08:40:30.389Z,32.53
2023-02-11T08:42:56.969Z,21.02
2023-02-11T08:45:23.618Z,22.05
2023-02-11T08:47:50.150Z,21.02
2023-02-11T08:50:16.682Z,25.30
2023-02-11T08:52:44.213Z,21.58
2023-02-11T08:55:10.777Z,27.45
2023-02-11T08:57:37.314Z,19.85
2023-02-11T09:00:04.549Z,32.00
2023-02-11T09:02:31.198Z,20.27
2023-02-11T09:04:57.772Z,18.67
2023-02-11T09:07:24.329Z,17.08
2023-02-11T09:09:50.848Z,19.35
2023-02-11T09:12:17.400Z,27.45
2023-02-11T09:14:44.090Z,14.95
2023-02-11T09:17:10.646Z,18.63
2023-02-11T09:19:37.206Z,15.63
2023-02-11T09:22:03.722Z,16.95
2023-02-11T09:24:30.246Z,18.90
2023-02-11T09:26:56.797Z,17.48
2023-02-11T09:29:23.554Z,16.55
2023-02-11T09:31:50.485Z,19.58
2023-02-11T09:34:17.111Z,19.97
2023-02-11T09:36:43.664Z,19.33
2023-02-11T09:39:13.243Z,20.92
2023-02-11T09:41:43.095Z,12.80
2023-02-11T09:44:17.519Z,19.10
2023-02-11T09:46:47.993Z,21.10
2023-02-11T09:49:19.903Z,21.65
2023-02-11T09:51:52.391Z,21.48
2023-02-11T09:54:37.281Z,17.00
2023-02-11T09:57:04.349Z,20.45
2023-02-11T09:59:30.904Z,21.50
2023-02-11T10:02:02.581Z,17.17
2023-02-11T10:04:47.506Z,17.38
2023-02-11T10:07:27.427Z,21.48
2023-02-11T10:09:53.914Z,15.00
2023-02-11T10:12:20.436Z,20.98
2023-02-11T10:14:58.899Z,20.50
2023-02-11T10:17:40.472Z,16.58
2023-02-11T10:20:25.727Z,21.08
2023-02-11T10:22:57.827Z,21.30
2023-02-11T10:25:26.116Z,20.20
2023-02-11T10:27:54.074Z,22.88
2023-02-11T10:33:09.752Z,21.73
2023-02-11T10:35:37.023Z,23.17
2023-02-11T10:38:03.551Z,20.67
2023-02-11T10:40:31.448Z,22.63
2023-02-11T10:45:32.184Z,20.10
2023-02-11T10:47:59.619Z,15.38
2023-02-11T10:50:27.970Z,20.70
2023-02-11T10:53:10.942Z,20.85
2023-02-11T10:55:37.629Z,19.70
2023-02-11T10:58:04.765Z,20.85
2023-02-11T11:00:39.078Z,23.38
2023-02-11T11:03:14.717Z,20.67
2023-02-11T11:05:49.631Z,19.40
2023-02-11T11:08:16.444Z,24.70
2023-02-11T11:10:44.378Z,23.13
2023-02-11T11:15:37.376Z,22.48
2023-02-11T11:18:20.786Z,17.15
2023-02-11T11:21:01.942Z,23.08
2023-02-11T11:23:30.045Z,25.90
2023-02-11T11:26:15.505Z,24.35
2023-02-11T11:28:42.083Z,24.20
2023-02-11T11:31:15.892Z,24.33
2023-02-11T11:33:44.570Z,22.88
2023-02-11T11:36:12.415Z,21.88
2023-02-11T11:38:48.695Z,23.58
2023-02-11T11:41:23.826Z,23.65
2023-02-11T11:43:57.262Z,24.35
2023-02-11T11:46:26.369Z,23.65
2023-02-11T11:48:54.591Z,19.92
2023-02-11T11:51:21.689Z,23.15
2023-02-11T11:53:54.076Z,20.85
2023-02-11T11:56:25.386Z,24.42
2023-02-11T11:58:53.065Z,24.42
2023-02-11T12:01:28.532Z,23.92
2023-02-11T12:03:57.826Z,20.67
2023-02-11T12:06:24.352Z,24.08
2023-02-11T12:09:13.902Z,24.13
2023-02-11T12:12:15.748Z,24.45
2023-02-11T12:15:01.187Z,23.90
2023-02-11T12:17:30.440Z,29.35
2023-02-11T12:20:07.877Z,28.05
2023-02-11T12:22:42.744Z,23.55
2023-02-11T12:25:29.115Z,23.73
2023-02-11T12:28:07.897Z,27.25
2023-02-11T12:30:34.535Z,25.25
2023-02-11T12:33:04.837Z,24.77
2023-02-11T12:35:43.538Z,27.08
2023-02-11T12:38:39.386Z,28.42
2023-02-11T12:41:44.461Z,26.65
2023-02-11T12:44:17.649Z,26.25
2023-02-11T12:46:49.219Z,29.02
2023-02-11T12:49:21.528Z,24.35
2023-02-11T12:51:50.838Z,26.42
2023-02-11T12:54:24.051Z,30.77
2023-02-11T12:56:53.358Z,26.17
2023-02-11T12:59:40.279Z,25.38
2023-02-11T13:02:14.805Z,22.65
2023-02-11T13:04:43.254Z,25.10
2023-02-11T13:07:14.267Z,24.25
2023-02-11T13:09:45.731Z,25.67
2023-02-11T13:12:32.024Z,24.65
2023-02-11T13:15:01.800Z,25.92
2023-02-11T13:17:40.955Z,24.40
2023-02-11T13:20:26.021Z,25.33
2023-02-11T13:23:04.623Z,26.10
2023-02-11T13:25:40.316Z,24.80
2023-02-11T13:28:18.285Z,24.80
2023-02-11T13:30:51.661Z,24.80
2023-02-11T13:33:20.823Z,26.33
2023-02-11T13:35:56.259Z,21.02
2023-02-11T13:38:23.934Z,25.13
2023-02-11T13:40:59.368Z,25.67
2023-02-11T13:43:28.903Z,24.88
2023-02-11T13:46:00.046Z,24.70
2023-02-11T13:48:31.009Z,23.30
2023-02-11T13:51:10.632Z,24.08
2023-02-11T13:53:51.619Z,25.05
2023-02-11T13:56:29.214Z,25.23
2023-02-11T13:58:56.463Z,26.73
2023-02-11T14:01:42.225Z,26.38
2023-02-11T14:04:41.422Z,28.00
2023-02-11T14:07:45.202Z,22.73
2023-02-11T14:10:30.725Z,26.55
2023-02-11T14:13:18.586Z,26.63
2023-02-11T14:15:46.181Z,26.52
2023-02-11T14:18:31.516Z,30.48
2023-02-11T14:21:13.246Z,29.30
2023-02-11T14:23:40.436Z,25.67
2023-02-11T14:26:20.089Z,26.23
2023-02-11T14:29:01.560Z,27.50
2023-02-11T14:31:31.105Z,24.85
2023-02-11T14:34:12.742Z,23.55
2023-02-11T14:37:08.461Z,24.42
2023-02-11T14:39:34.994Z,24.83
2023-02-11T14:42:02.360Z,25.95
2023-02-11T14:44:30.519Z,27.25
2023-02-11T14:46:58.048Z,26.48
2023-02-11T14:49:27.378Z,25.80
2023-02-11T14:51:55.990Z,22.15
2023-02-11T14:54:25.217Z,19.10
2023-02-11T14:57:08.638Z,22.85
2023-02-11T14:59:35.376Z,25.00
2023-02-11T15:02:01.950Z,23.77
2023-02-11T15:04:32.795Z,23.60
2023-02-11T15:07:03.330Z,23.73
2023-02-11T15:09:33.774Z,24.08
2023-02-11T15:12:00.378Z,23.80
2023-02-11T15:14:30.369Z,23.50
2023-02-11T15:16:58.845Z,22.42
2023-02-11T15:19:34.545Z,20.00
2023-02-11T15:22:01.932Z,27.50
2023-02-11T15:24:28.538Z,28.50
2023-02-11T15:27:14.579Z,20.98
2023-02-11T15:29:50.630Z,22.00
2023-02-11T15:32:18.552Z,28.27
2023-02-11T15:34:46.106Z,22.95
2023-02-11T15:37:24.085Z,23.60
2023-02-11T15:39:50.737Z,23.30
2023-02-11T15:42:18.679Z,27.98
2023-02-11T15:47:21.544Z,24.52
2023-02-11T15:49:49.002Z,21.42
2023-02-11T15:52:22.108Z,24.15
2023-02-11T15:54:49.003Z,23.42
2023-02-11T15:57:16.392Z,28.02
2023-02-11T15:59:46.330Z,53.50
2023-02-11T16:02:18.808Z,22.83
2023-02-11T16:04:53.561Z,23.02
2023-02-11T16:07:39.562Z,24.23
2023-02-11T16:10:23.829Z,44.80
2023-02-11T16:12:54.533Z,27.85
2023-02-11T16:15:33.263Z,24.95
2023-02-11T16:18:00.665Z,31.60
2023-02-11T16:20:27.149Z,30.17
2023-02-11T16:22:53.970Z,42.25
2023-02-11T16:25:21.560Z,28.33
2023-02-11T16:27:52.035Z,21.20
2023-02-11T16:30:23.392Z,25.08
2023-02-11T16:32:50.113Z,24.08
2023-02-11T16:35:16.666Z,25.77
2023-02-11T16:37:43.201Z,24.33
2023-02-11T16:40:11.960Z,24.38
2023-02-11T16:42:38.581Z,24.90
2023-02-11T16:45:05.336Z,24.80
2023-02-11T16:47:32.094Z,27.70
2023-02-11T16:49:58.712Z,26.05
2023-02-11T16:52:25.550Z,26.05
2023-02-11T16:54:52.094Z,28.55
2023-02-11T16:57:23.113Z,26.85
2023-02-11T16:59:50.303Z,24.27
2023-02-11T17:02:23.793Z,24.85
2023-02-11T17:04:51.142Z,22.80
2023-02-11T17:07:17.737Z,24.10
2023-02-11T17:09:44.283Z,22.80
2023-02-11T17:12:10.814Z,25.63
2023-02-11T17:14:37.380Z,23.17
2023-02-11T17:17:03.942Z,23.88
2023-02-11T17:19:30.718Z,23.80
2023-02-11T17:21:57.246Z,24.02
2023-02-11T17:24:23.877Z,23.88
2023-02-11T17:26:50.503Z,24.55
2023-02-11T17:29:18.291Z,23.58
2023-02-11T17:31:45.013Z,25.80
2023-02-11T17:34:11.941Z,32.45
2023-02-11T17:36:38.570Z,154.32
2023-02-11T17:39:07.788Z,28.58
2023-02-11T17:41:35.059Z,34.58
2023-02-11T17:44:01.613Z,23.08
2023-02-11T17:46:28.684Z,26.80
2023-02-11T17:48:55.865Z,24.83
2023-02-11T17:51:36.318Z,23.73
2023-02-11T17:54:04.489Z,24.73
2023-02-11T17:56:34.348Z,26.65
2023-02-11T17:59:02.487Z,34.30
2023-02-11T18:01:30.078Z,25.42
2023-02-11T18:03:56.779Z,25.98
2023-02-11T18:06:23.660Z,36.95
2023-02-11T18:08:50.212Z,27.55
2023-02-11T18:11:16.818Z,29.52
2023-02-11T18:13:43.891Z,32.70
2023-02-11T18:16:15.577Z,28.20
2023-02-11T18:18:43.152Z,26.13
2023-02-11T18:21:12.997Z,25.27
2023-02-11T18:23:39.547Z,29.05
2023-02-11T18:26:10.181Z,28.60
2023-02-11T18:28:37.280Z,28.50
2023-02-11T18:31:04.257Z,28.90
2023-02-11T18:33:30.928Z,27.58
2023-02-11T18:35:57.764Z,26.00
2023-02-11T18:38:24.865Z,23.90
2023-02-11T18:40:52.388Z,25.88
2023-02-11T18:43:21.762Z,24.90
2023-02-11T18:45:48.753Z,24.63
2023-02-11T18:48:15.485Z,23.53
2023-02-11T18:50:46.029Z,27.77
2023-02-11T18:53:13.074Z,26.83
2023-02-11T18:55:40.270Z,26.30
2023-02-11T18:58:07.014Z,26.13
2023-02-11T19:00:34.487Z,25.20
2023-02-11T19:03:01.139Z,23.88
2023-02-11T19:05:29.986Z,23.55
2023-02-11T19:07:56.689Z,27.05
2023-02-11T19:10:23.878Z,34.25
2023-02-11T19:12:53.215Z,29.73
2023-02-11T19:15:19.786Z,24.88
2023-02-11T19:17:46.326Z,28.88
2023-02-11T19:20:12.861Z,29.13
2023-02-11T19:22:39.394Z,25.63
2023-02-11T19:25:07.235Z,26.80
2023-02-11T19:27:33.790Z,27.20
2023-02-11T19:30:00.337Z,27.40
2023-02-11T19:32:26.863Z,31.50
2023-02-11T19:34:53.709Z,25.25
2023-02-11T19:37:20.220Z,24.92
2023-02-11T19:39:46.847Z,23.13
2023-02-11T19:42:13.466Z,25.50
2023-02-11T19:44:40.164Z,25.00
2023-02-11T19:47:06.980Z,21.58
2023-02-11T19:49:33.727Z,21.45
2023-02-11T19:52:00.277Z,22.42
2023-02-11T19:54:27.178Z,23.27
2023-02-11T19:56:53.784Z,24.13
2023-02-11T19:59:20.654Z,22.67
2023-02-11T20:01:49.038Z,26.38
2023-02-11T20:04:16.613Z,26.00
2023-02-11T20:06:43.252Z,24.45
2023-02-11T20:09:12.772Z,24.98
2023-02-11T20:11:39.370Z,24.63
2023-02-11T20:14:06.942Z,20.70
2023-02-11T20:16:47.561Z,27.98
2023-02-11T20:19:18.227Z,31.85
2023-02-11T20:21:47.095Z,24.05
2023-02-11T20:24:14.068Z,23.92
2023-02-11T20:26:42.433Z,24.25
2023-02-11T20:29:09.333Z,29.92
2023-02-11T20:31:36.000Z,26.88
2023-02-11T20:34:02.709Z,29.15
2023-02-11T20:36:32.001Z,29.25
2023-02-11T20:38:59.299Z,28.42
2023-02-11T20:41:28.106Z,30.40
2023-02-11T20:43:55.618Z,30.35
2023-02-11T20:46:23.695Z,31.90
2023-02-11T20:48:51.037Z,29.55
2023-02-11T20:51:19.164Z,31.92
2023-02-11T20:53:48.851Z,29.98
2023-02-11T20:56:16.969Z,29.48
2023-02-11T20:58:43.570Z,30.30
2023-02-11T21:01:13.931Z,29.33
2023-02-11T21:03:43.797Z,30.60
2023-02-11T21:06:11.447Z,30.15
2023-02-11T21:08:38.318Z,28.60
2023-02-11T21:11:08.529Z,28.98
2023-02-11T21:13:38.845Z,32.90
2023-02-11T21:16:05.830Z,29.70
2023-02-11T21:18:32.690Z,27.00
2023-02-11T21:20:59.635Z,30.95
2023-02-11T21:23:26.610Z,29.43
2023-02-11T21:25:53.733Z,28.48
2023-02-11T21:28:25.988Z,30.27
2023-02-11T21:30:53.896Z,31.33
2023-02-11T21:35:47.199Z,29.25
2023-02-11T21:38:13.715Z,29.60
2023-02-11T21:40:40.328Z,31.75
2023-02-11T21:43:06.898Z,33.20
2023-02-11T21:45:33.445Z,28.05
2023-02-11T21:48:00.098Z,36.83
2023-02-11T21:50:26.658Z,31.05
2023-02-11T21:52:53.216Z,33.40
2023-02-11T21:55:19.778Z,34.08
2023-02-11T21:57:46.343Z,31.42
2023-02-11T22:00:13.281Z,31.35
2023-02-11T22:02:39.826Z,33.83
2023-02-11T22:05:06.519Z,34.28
2023-02-11T22:07:35.431Z,29.13
2023-02-11T22:10:03.506Z,28.98
2023-02-11T22:12:30.128Z,26.17
2023-02-11T22:14:56.658Z,24.90
2023-02-11T22:17:23.417Z,25.92
2023-02-11T22:19:50.143Z,25.67
2023-02-11T22:22:18.341Z,23.88
2023-02-11T22:24:47.737Z,25.30
2023-02-11T22:27:14.794Z,24.98
2023-02-11T22:29:41.433Z,24.70
2023-02-11T22:32:08.306Z,26.33
2023-02-11T22:34:34.860Z,28.60
2023-02-11T22:37:02.425Z,26.65
2023-02-11T22:39:29.361Z,27.98
2023-02-11T22:41:56.658Z,27.02
2023-02-11T22:44:24.323Z,22.50
2023-02-11T22:46:51.249Z,25.08
2023-02-11T22:49:18.781Z,24.00
2023-02-11T22:51:45.549Z,22.17
2023-02-11T22:54:14.661Z,23.42
2023-02-11T22:56:41.296Z,21.33
2023-02-11T22:59:10.663Z,22.50
2023-02-11T23:01:37.291Z,29.00
2023-02-11T23:04:04.859Z,23.95
2023-02-11T23:06:31.726Z,25.08
2023-02-11T23:08:58.274Z,26.35
2023-02-11T23:11:26.303Z,20.90
2023-02-11T23:16:20.933Z,17.48
2023-02-11T23:18:48.160Z,18.30
2023-02-11T23:21:16.614Z,17.58
2023-02-11T23:23:43.420Z,18.65
2023-02-11T23:26:11.117Z,19.40
2023-02-11T23:28:38.006Z,18.92
2023-02-11T23:31:24.124Z,18.83
2023-02-11T23:33:51.091Z,18.95
2023-02-11T23:36:18.332Z,18.80
2023-02-11T23:38:44.956Z,18.83
2023-02-11T23:41:11.874Z,19.20
2023-02-11T23:43:38.844Z,20.37
2023-02-11T23:46:05.526Z,18.92
2023-02-11T23:48:32.175Z,18.20
2023-02-11T23:50:58.729Z,16.83
2023-02-11T23:53:25.283Z,17.48
2023-02-11T23:55:51.805Z,14.43
2023-02-11T23:58:18.370Z,12.02
